Time;durP1;ratioP1;P1;durP2;ratioP2;P2;SDS_P1;SDS_P2;PMS_P1;PMS_P2;Temp;Humidity;BMP_temperature;BMP_pressure;BME280_temperature;BME280_humidity;BME280_pressure;Samples;Min_cycle;Max_cycle;Signal;HPM_P1;HPM_P2
2022/09/27 00:02:00;;;;;;;1.95;1.20;;;12.00;87.30;;;;;;5050711;28;20059;-66
2022/09/27 00:04:26;;;;;;;4.43;1.33;;;12.00;87.30;;;;;;5065070;28;20020;-66
2022/09/27 00:06:52;;;;;;;2.97;1.20;;;12.00;87.30;;;;;;5045812;28;20021;-66
2022/09/27 00:09:18;;;;;;;2.85;1.20;;;11.90;87.30;;;;;;5047729;28;20035;-66
2022/09/27 00:11:44;;;;;;;2.15;1.00;;;11.90;87.30;;;;;;5056969;28;20033;-66
2022/09/27 00:14:13;;;;;;;3.15;1.30;;;11.90;87.30;;;;;;5060285;28;20016;-65
2022/09/27 00:16:39;;;;;;;2.13;1.20;;;11.90;87.50;;;;;;5052628;28;20550;-66
2022/09/27 00:19:17;;;;;;;4.97;1.40;;;11.90;87.50;;;;;;5057449;28;20394;-66
2022/09/27 00:21:44;;;;;;;4.25;1.27;;;11.80;87.60;;;;;;5056556;28;20025;-66
2022/09/27 00:24:19;;;;;;;3.05;1.20;;;11.80;87.50;;;;;;5048714;28;20028;-65
2022/09/27 00:26:46;;;;;;;3.33;1.05;;;11.80;87.60;;;;;;5036267;28;20021;-65
2022/09/27 00:29:12;;;;;;;3.05;1.20;;;11.70;87.60;;;;;;5057792;28;20112;-65
2022/09/27 00:31:38;;;;;;;2.22;1.00;;;11.70;87.60;;;;;;5058013;28;20553;-66
2022/09/27 00:34:04;;;;;;;3.08;1.00;;;11.60;87.60;;;;;;5057213;28;20482;-66
2022/09/27 00:36:31;;;;;;;1.90;0.90;;;11.60;87.70;;;;;;5065931;28;20025;-66
2022/09/27 00:38:58;;;;;;;3.90;1.13;;;11.60;87.70;;;;;;5052038;28;20020;-65
2022/09/27 00:41:35;;;;;;;3.78;1.17;;;11.70;87.80;;;;;;5060726;28;20134;-66
2022/09/27 00:44:04;;;;;;;2.08;0.90;;;11.60;87.70;;;;;;5058622;28;20027;-66
2022/09/27 00:46:38;;;;;;;2.65;1.00;;;11.60;87.80;;;;;;5053558;28;20060;-66
2022/09/27 00:49:17;;;;;;;1.83;0.90;;;11.60;87.80;;;;;;5054393;28;20414;-66
2022/09/27 00:51:46;;;;;;;2.50;1.05;;;11.60;87.80;;;;;;5057436;28;20489;-66
2022/09/27 00:54:16;;;;;;;3.03;1.10;;;11.60;87.70;;;;;;5065113;28;20040;-65
2022/09/27 00:56:43;;;;;;;2.85;0.90;;;11.60;87.70;;;;;;5046347;28;20075;-65
2022/09/27 00:59:19;;;;;;;4.63;0.90;;;11.70;87.90;;;;;;5045742;28;20055;-66
2022/09/27 01:01:45;;;;;;;2.05;0.80;;;11.70;87.80;;;;;;5056092;28;20501;-66
2022/09/27 01:04:15;;;;;;;2.85;0.90;;;11.70;87.70;;;;;;5043560;28;20037;-65
2022/09/27 01:06:41;;;;;;;1.73;0.75;;;11.70;87.70;;;;;;5049152;28;20020;-65
2022/09/27 01:09:08;;;;;;;1.92;0.98;;;11.70;87.60;;;;;;5044220;28;20484;-65
2022/09/27 01:11:56;;;;;;;2.45;0.90;;;11.70;87.50;;;;;;5047359;28;20028;-66
2022/09/27 01:14:51;;;;;;;1.13;0.65;;;11.70;87.50;;;;;;5066379;28;20024;-65
2022/09/27 01:17:25;;;;;;;2.08;0.80;;;11.70;87.40;;;;;;5042607;28;20029;-65
2022/09/27 01:20:37;;;;;;;2.70;0.70;;;11.70;87.40;;;;;;5045901;28;20031;-65
2022/09/27 01:23:38;;;;;;;2.70;0.80;;;11.70;87.40;;;;;;5032228;28;20045;-65
2022/09/27 01:26:32;;;;;;;2.25;0.82;;;11.70;87.40;;;;;;5054134;28;20036;-65
2022/09/27 01:29:10;;;;;;;1.48;0.75;;;11.70;87.30;;;;;;5040592;28;20551;-66
2022/09/27 01:31:47;;;;;;;2.35;0.90;;;11.70;87.20;;;;;;5053274;28;20021;-65
2022/09/27 01:34:31;;;;;;;1.52;0.80;;;11.60;87.10;;;;;;5052633;28;20717;-65
2022/09/27 01:37:21;;;;;;;2.28;0.80;;;11.50;87.10;;;;;;5042153;28;20047;-64
2022/09/27 01:40:05;;;;;;;1.40;0.80;;;11.50;87.20;;;;;;5061920;28;20021;-64
2022/09/27 01:42:39;;;;;;;2.70;0.90;;;11.50;87.30;;;;;;5064831;28;20395;-65
2022/09/27 01:45:21;;;;;;;3.72;0.77;;;11.50;87.40;;;;;;5047135;28;20139;-66
2022/09/27 01:47:51;;;;;;;1.42;0.60;;;11.40;87.30;;;;;;5061891;28;20100;-66
2022/09/27 01:50:40;;;;;;;1.88;0.60;;;11.50;87.40;;;;;;5051202;28;20013;-65
2022/09/27 01:53:15;;;;;;;3.22;0.85;;;11.50;87.40;;;;;;5044139;28;20083;-66
2022/09/27 01:55:44;;;;;;;1.90;0.60;;;11.40;87.30;;;;;;5051502;28;20036;-65
2022/09/27 01:58:17;;;;;;;2.03;0.70;;;11.40;87.40;;;;;;5054632;28;20616;-66
2022/09/27 02:00:46;;;;;;;1.40;0.70;;;11.40;87.50;;;;;;5047330;28;20383;-65
2022/09/27 02:03:17;;;;;;;1.42;0.70;;;11.30;87.50;;;;;;5058821;28;20029;-65
2022/09/27 02:05:53;;;;;;;0.80;0.50;;;11.30;87.50;;;;;;5052955;28;20022;-66
2022/09/27 02:08:40;;;;;;;1.20;0.70;;;11.30;87.60;;;;;;5065242;28;20036;-66
2022/09/27 02:11:10;;;;;;;0.93;0.60;;;11.20;87.60;;;;;;5053686;28;20021;-65
2022/09/27 02:13:45;;;;;;;1.70;0.80;;;11.20;87.60;;;;;;5059776;28;20146;-65
2022/09/27 02:16:17;;;;;;;2.50;0.70;;;11.20;87.60;;;;;;5049812;28;20472;-66
2022/09/27 02:19:17;;;;;;;1.38;0.60;;;11.10;87.50;;;;;;5048909;28;20078;-67
2022/09/27 02:21:54;;;;;;;1.63;0.70;;;11.10;87.70;;;;;;5040903;28;20030;-66
2022/09/27 02:24:28;;;;;;;1.00;0.60;;;11.00;87.60;;;;;;5066311;28;20025;-66
2022/09/27 02:27:03;;;;;;;1.40;0.63;;;11.00;87.70;;;;;;5050319;28;20020;-66
2022/09/27 02:29:43;;;;;;;1.15;0.70;;;11.00;87.80;;;;;;5053388;28;20373;-66
2022/09/27 02:32:09;;;;;;;2.45;1.00;;;10.90;87.80;;;;;;5063239;28;20514;-66
2022/09/27 02:34:37;;;;;;;1.90;0.77;;;10.90;87.80;;;;;;5048162;28;20034;-66
2022/09/27 02:37:03;;;;;;;3.88;1.00;;;10.90;87.90;;;;;;5057011;28;20048;-66
2022/09/27 02:39:28;;;;;;;1.83;0.70;;;10.90;87.80;;;;;;5061687;28;20056;-66
2022/09/27 02:41:57;;;;;;;1.58;0.70;;;10.80;87.70;;;;;;5041478;28;20021;-66
2022/09/27 02:44:23;;;;;;;1.63;0.60;;;10.80;87.70;;;;;;5064643;28;20025;-66
2022/09/27 02:47:08;;;;;;;3.75;0.82;;;10.80;87.70;;;;;;5060447;28;20025;-66
2022/09/27 02:49:59;;;;;;;1.83;0.80;;;10.70;87.80;;;;;;5055440;28;20498;-66
2022/09/27 02:52:45;;;;;;;3.38;0.80;;;10.80;87.90;;;;;;5053420;28;20025;-65
2022/09/27 02:55:22;;;;;;;2.72;0.70;;;10.70;87.80;;;;;;5045460;28;20059;-65
2022/09/27 02:58:21;;;;;;;1.70;0.80;;;10.70;87.90;;;;;;5052688;28;20029;-66
2022/09/27 03:00:56;;;;;;;2.08;0.70;;;10.70;87.90;;;;;;5048762;28;20027;-65
2022/09/27 03:03:48;;;;;;;2.30;0.77;;;10.70;87.80;;;;;;5061478;28;20029;-65
2022/09/27 03:06:17;;;;;;;2.13;0.80;;;10.80;87.80;;;;;;5051610;28;20037;-66
2022/09/27 03:08:43;;;;;;;2.08;0.93;;;10.70;87.70;;;;;;5034451;28;20864;-65
2022/09/27 03:11:08;;;;;;;0.77;0.77;;;10.70;87.70;;;;;;5059421;28;20021;-66
2022/09/27 03:13:37;;;;;;;2.13;0.82;;;10.80;87.80;;;;;;5055874;28;20021;-66
2022/09/27 03:16:06;;;;;;;1.77;0.80;;;10.70;87.70;;;;;;5033271;28;20160;-66
2022/09/27 03:18:32;;;;;;;2.35;0.80;;;10.70;87.70;;;;;;5062862;28;20029;-66
2022/09/27 03:20:58;;;;;;;2.78;0.80;;;10.70;87.80;;;;;;5046383;28;20432;-66
2022/09/27 03:23:23;;;;;;;2.35;0.90;;;10.60;87.70;;;;;;5062651;28;20111;-66
2022/09/27 03:25:50;;;;;;;1.23;0.73;;;10.70;87.80;;;;;;5060752;28;20044;-66
2022/09/27 03:28:16;;;;;;;4.50;0.85;;;10.60;87.80;;;;;;5064010;28;20047;-66
2022/09/27 03:30:44;;;;;;;2.60;0.90;;;10.60;87.90;;;;;;5036609;28;20026;-65
2022/09/27 03:33:10;;;;;;;2.10;0.90;;;10.60;87.90;;;;;;5031221;28;20549;-65
2022/09/27 03:35:36;;;;;;;4.00;0.80;;;10.60;87.90;;;;;;5055757;28;20040;-65
2022/09/27 03:38:02;;;;;;;3.10;0.90;;;10.60;87.90;;;;;;5065677;28;20548;-65
2022/09/27 03:40:28;;;;;;;2.53;0.80;;;10.70;87.90;;;;;;5049555;28;20036;-66
2022/09/27 03:42:53;;;;;;;1.90;0.68;;;10.60;87.80;;;;;;5049667;28;20487;-65
2022/09/27 03:45:19;;;;;;;2.38;0.93;;;10.60;87.80;;;;;;5049514;28;20032;-65
2022/09/27 03:47:45;;;;;;;1.27;0.73;;;10.60;87.80;;;;;;5058393;28;20505;-65
2022/09/27 03:50:11;;;;;;;2.92;0.88;;;10.60;87.80;;;;;;5039419;28;20041;-65
2022/09/27 03:52:37;;;;;;;2.85;1.00;;;10.60;87.80;;;;;;5067753;28;20021;-65
2022/09/27 03:55:03;;;;;;;2.15;1.08;;;10.60;87.80;;;;;;5034765;28;20104;-65
2022/09/27 03:57:30;;;;;;;2.47;0.80;;;10.60;87.90;;;;;;5052230;28;20040;-65
2022/09/27 03:59:58;;;;;;;4.40;0.90;;;10.60;87.90;;;;;;5054700;28;20661;-65
2022/09/27 04:02:25;;;;;;;3.03;1.00;;;10.60;88.00;;;;;;5034408;28;20033;-65
2022/09/27 04:04:50;;;;;;;2.20;0.88;;;10.60;88.00;;;;;;5055036;28;20019;-66
2022/09/27 04:07:16;;;;;;;4.82;1.38;;;10.60;87.90;;;;;;5064735;28;20103;-66
2022/09/27 04:09:43;;;;;;;2.60;1.10;;;10.60;87.90;;;;;;5050067;28;20017;-65
2022/09/27 04:12:09;;;;;;;3.17;1.10;;;10.60;88.00;;;;;;5047405;28;20033;-66
2022/09/27 04:14:35;;;;;;;2.92;1.30;;;10.60;88.00;;;;;;5067216;28;20628;-66
2022/09/27 04:17:00;;;;;;;2.85;1.13;;;10.60;88.00;;;;;;5050758;28;20037;-66
2022/09/27 04:19:26;;;;;;;1.73;1.08;;;10.60;87.90;;;;;;5052354;28;20992;-66
2022/09/27 04:21:51;;;;;;;2.92;1.30;;;10.60;87.90;;;;;;5044850;28;20468;-66
2022/09/27 04:24:17;;;;;;;2.85;1.23;;;10.60;87.90;;;;;;5063716;28;20507;-66
2022/09/27 04:26:43;;;;;;;4.13;1.30;;;10.60;87.90;;;;;;5065445;28;20013;-66
2022/09/27 04:29:09;;;;;;;1.38;0.90;;;10.60;87.90;;;;;;5057553;28;20036;-65
2022/09/27 04:31:36;;;;;;;3.42;1.10;;;10.60;87.90;;;;;;5044046;28;20028;-66
2022/09/27 04:34:03;;;;;;;3.08;1.40;;;10.60;87.90;;;;;;5042711;28;20419;-66
2022/09/27 04:36:29;;;;;;;3.55;1.08;;;10.70;88.00;;;;;;5036825;28;20057;-66
2022/09/27 04:39:01;;;;;;;5.75;1.27;;;10.70;87.80;;;;;;5057150;28;20024;-66
2022/09/27 04:41:27;;;;;;;3.45;1.35;;;10.70;87.80;;;;;;5051437;28;20025;-66
2022/09/27 04:43:54;;;;;;;6.20;1.42;;;10.70;87.80;;;;;;5040898;28;20032;-66
2022/09/27 04:46:20;;;;;;;4.35;1.20;;;10.70;87.80;;;;;;5045679;28;20029;-66
2022/09/27 04:48:46;;;;;;;3.03;1.00;;;10.70;87.80;;;;;;5043949;28;20448;-66
2022/09/27 04:51:15;;;;;;;3.15;1.10;;;10.70;87.70;;;;;;5041714;28;20033;-66
2022/09/27 04:53:40;;;;;;;4.65;1.20;;;10.70;87.70;;;;;;5039722;28;20596;-66
2022/09/27 04:56:06;;;;;;;3.58;1.17;;;10.70;87.60;;;;;;5049408;28;20100;-65
2022/09/27 04:58:33;;;;;;;2.78;1.20;;;10.60;87.50;;;;;;5057729;28;20049;-66
2022/09/27 05:01:01;;;;;;;5.05;1.40;;;10.60;87.60;;;;;;5054709;28;20024;-66
2022/09/27 05:03:27;;;;;;;7.65;1.30;;;10.60;87.70;;;;;;5037907;28;20024;-66
2022/09/27 05:05:53;;;;;;;2.97;1.00;;;10.50;87.50;;;;;;5040913;28;20021;-65
2022/09/27 05:08:19;;;;;;;3.13;1.15;;;10.60;87.70;;;;;;5050213;28;20045;-64
2022/09/27 05:10:46;;;;;;;4.85;1.30;;;10.50;87.60;;;;;;5056320;28;20067;-65
2022/09/27 05:13:12;;;;;;;3.63;1.10;;;10.50;87.50;;;;;;5044893;28;20484;-65
2022/09/27 05:15:38;;;;;;;5.28;1.30;;;10.50;87.40;;;;;;5048847;28;20033;-65
2022/09/27 05:18:04;;;;;;;4.63;1.30;;;10.50;87.50;;;;;;5047001;28;20033;-66
2022/09/27 05:20:30;;;;;;;1.77;1.02;;;10.50;87.50;;;;;;5044679;28;20021;-66
2022/09/27 05:22:55;;;;;;;3.65;1.20;;;10.50;87.40;;;;;;5049177;28;20020;-66
2022/09/27 05:25:21;;;;;;;4.63;1.20;;;10.40;87.30;;;;;;5045043;28;20071;-66
2022/09/27 05:27:48;;;;;;;5.43;1.52;;;10.40;87.40;;;;;;5039060;28;20075;-65
2022/09/27 05:30:14;;;;;;;3.83;1.25;;;10.40;87.40;;;;;;5038962;28;20034;-65
2022/09/27 05:32:42;;;;;;;4.28;1.23;;;10.40;87.40;;;;;;5042064;28;20513;-65
2022/09/27 05:35:09;;;;;;;2.97;0.90;;;10.30;87.40;;;;;;5051955;28;20024;-66
2022/09/27 05:37:35;;;;;;;3.65;1.10;;;10.40;87.50;;;;;;5047051;28;20087;-66
2022/09/27 05:40:01;;;;;;;4.50;1.05;;;10.30;87.40;;;;;;5049786;28;20029;-66
2022/09/27 05:42:26;;;;;;;4.35;1.08;;;10.30;87.40;;;;;;5041816;28;20116;-66
2022/09/27 05:44:52;;;;;;;1.92;0.88;;;10.20;87.30;;;;;;5054693;28;20528;-66
2022/09/27 05:47:17;;;;;;;3.75;1.13;;;10.30;87.40;;;;;;5056672;28;20394;-66
2022/09/27 05:49:43;;;;;;;3.60;1.50;;;10.20;87.30;;;;;;5044837;28;20496;-67
2022/09/27 05:52:09;;;;;;;1.80;0.98;;;10.30;87.30;;;;;;5045302;28;20399;-67
2022/09/27 05:54:34;;;;;;;2.13;1.10;;;10.30;87.30;;;;;;5047850;28;20504;-66
2022/09/27 05:57:00;;;;;;;3.35;1.00;;;10.20;87.10;;;;;;5036748;28;20034;-66
2022/09/27 05:59:26;;;;;;;2.15;1.15;;;10.20;87.10;;;;;;5040622;28;20040;-66
2022/09/27 06:01:53;;;;;;;2.95;1.00;;;10.20;87.10;;;;;;5039832;28;20029;-66
2022/09/27 06:04:19;;;;;;;3.15;1.15;;;10.30;87.20;;;;;;5063210;28;20086;-66
2022/09/27 06:06:46;;;;;;;2.17;1.33;;;10.30;87.10;;;;;;5044291;28;20017;-67
2022/09/27 06:09:14;;;;;;;3.47;1.05;;;10.30;87.10;;;;;;5044191;28;20099;-67
2022/09/27 06:11:40;;;;;;;3.55;1.23;;;10.40;87.10;;;;;;5055566;28;20032;-66
2022/09/27 06:14:05;;;;;;;2.38;1.20;;;10.30;87.10;;;;;;5044027;28;20010;-67
2022/09/27 06:16:31;;;;;;;3.97;1.40;;;10.40;87.20;;;;;;5035223;28;20480;-66
2022/09/27 06:18:57;;;;;;;4.45;1.35;;;10.40;87.20;;;;;;5048681;28;20236;-67
2022/09/27 06:21:23;;;;;;;1.85;1.00;;;10.40;87.20;;;;;;5045139;28;20018;-66
2022/09/27 06:23:48;;;;;;;1.95;1.00;;;10.50;87.30;;;;;;5037372;28;20040;-66
2022/09/27 06:26:14;;;;;;;2.20;1.02;;;10.60;87.30;;;;;;5046651;28;20093;-66
2022/09/27 06:28:40;;;;;;;2.58;1.30;;;10.70;87.80;;;;;;5056193;28;20025;-66
2022/09/27 06:31:07;;;;;;;3.00;1.30;;;10.70;87.00;;;;;;5038877;28;20021;-67
2022/09/27 06:33:34;;;;;;;2.95;1.20;;;10.80;87.10;;;;;;5041818;28;20052;-66
2022/09/27 06:36:05;;;;;;;6.15;1.45;;;10.90;87.10;;;;;;5051024;28;20075;-67
2022/09/27 06:38:31;;;;;;;3.17;1.30;;;11.00;86.90;;;;;;5045369;28;20032;-66
2022/09/27 06:41:00;;;;;;;2.90;0.90;;;11.20;86.50;;;;;;5037779;28;20031;-66
2022/09/27 06:43:26;;;;;;;3.25;1.08;;;11.30;86.20;;;;;;5041771;28;20029;-67
2022/09/27 06:45:52;;;;;;;1.90;1.05;;;11.30;86.00;;;;;;5041608;28;20029;-67
2022/09/27 06:48:18;;;;;;;2.03;1.40;;;11.20;85.90;;;;;;5048026;28;20025;-67
2022/09/27 06:50:46;;;;;;;1.65;0.90;;;11.20;86.00;;;;;;5043540;28;21715;-67
2022/09/27 06:53:14;;;;;;;2.20;1.02;;;11.20;86.10;;;;;;5051450;28;20029;-67
2022/09/27 06:55:40;;;;;;;1.65;0.90;;;11.20;86.20;;;;;;5040685;28;20025;-67
2022/09/27 07:00:52;;;;;;;2.55;1.10;;;11.30;86.10;;;;;;5043567;28;20108;-66
2022/09/27 07:03:18;;;;;;;3.25;1.40;;;11.30;85.90;;;;;;5039806;28;20745;-67
2022/09/27 07:05:54;;;;;;;2.42;1.02;;;11.30;86.20;;;;;;5054118;28;20018;-67
2022/09/27 07:08:20;;;;;;;1.65;0.82;;;11.40;86.20;;;;;;5051901;28;20025;-67
2022/09/27 07:10:45;;;;;;;2.17;1.00;;;11.50;85.90;;;;;;5051976;28;20475;-67
2022/09/27 07:13:11;;;;;;;2.20;1.00;;;11.50;85.70;;;;;;5039491;28;20043;-66
2022/09/27 07:15:40;;;;;;;3.15;1.50;;;11.50;85.70;;;;;;5039672;28;20022;-67
2022/09/27 07:18:06;;;;;;;3.45;1.05;;;11.50;85.90;;;;;;5043487;28;20024;-67
2022/09/27 07:20:35;;;;;;;3.13;0.90;;;11.40;86.00;;;;;;5043455;28;20057;-67
2022/09/27 07:23:02;;;;;;;2.72;1.05;;;11.40;86.20;;;;;;5044363;28;20496;-67
2022/09/27 07:25:28;;;;;;;2.58;0.95;;;11.40;86.20;;;;;;5044684;28;20104;-64
2022/09/27 07:27:53;;;;;;;2.55;1.10;;;11.40;86.20;;;;;;5040404;28;20150;-66
2022/09/27 07:30:20;;;;;;;2.10;0.90;;;11.40;86.20;;;;;;5044203;28;20018;-66
2022/09/27 07:32:46;;;;;;;1.58;1.00;;;11.40;86.30;;;;;;5045277;28;20037;-66
2022/09/27 07:35:15;;;;;;;1.80;0.82;;;11.40;86.30;;;;;;5045403;28;20419;-66
2022/09/27 07:37:41;;;;;;;1.83;0.90;;;11.50;86.30;;;;;;5043892;28;20056;-65
2022/09/27 07:40:09;;;;;;;2.50;0.98;;;11.50;86.30;;;;;;5057308;28;20480;-65
2022/09/27 07:42:39;;;;;;;1.95;1.00;;;11.50;86.20;;;;;;5044054;28;20022;-65
2022/09/27 07:45:06;;;;;;;1.20;0.90;;;11.60;86.20;;;;;;5051640;28;20022;-65
2022/09/27 07:47:32;;;;;;;3.17;0.85;;;11.60;86.10;;;;;;5051516;28;20029;-65
2022/09/27 07:49:58;;;;;;;1.88;0.90;;;11.80;86.10;;;;;;5045360;28;20530;-65
2022/09/27 07:52:24;;;;;;;2.22;1.00;;;11.80;85.90;;;;;;5049206;28;20079;-66
2022/09/27 07:54:49;;;;;;;2.83;0.90;;;11.90;85.70;;;;;;5045059;28;20020;-66
2022/09/27 07:57:16;;;;;;;2.92;1.08;;;11.90;85.40;;;;;;5050973;28;20029;-66
2022/09/27 07:59:41;;;;;;;3.67;1.00;;;11.90;85.50;;;;;;5046338;28;20058;-66
2022/09/27 08:02:14;;;;;;;2.78;1.02;;;11.90;85.50;;;;;;5040812;28;20049;-66
2022/09/27 08:04:42;;;;;;;1.52;0.82;;;11.90;85.50;;;;;;5036780;28;20033;-66
2022/09/27 08:07:09;;;;;;;2.45;1.10;;;11.90;85.40;;;;;;5051420;28;20049;-66
2022/09/27 08:09:36;;;;;;;2.20;0.88;;;12.00;85.50;;;;;;5044724;28;20028;-66
2022/09/27 08:12:03;;;;;;;3.35;0.80;;;12.00;85.50;;;;;;5041273;28;20032;-66
2022/09/27 08:14:28;;;;;;;1.30;0.65;;;12.10;85.50;;;;;;5041589;28;20025;-66
2022/09/27 08:16:54;;;;;;;3.55;1.00;;;12.10;85.40;;;;;;5039402;28;20024;-66
2022/09/27 08:19:20;;;;;;;2.05;0.90;;;12.20;85.30;;;;;;5044036;28;20043;-66
2022/09/27 08:21:46;;;;;;;1.75;0.80;;;12.20;85.30;;;;;;5044075;28;20064;-66
2022/09/27 08:24:12;;;;;;;2.00;1.00;;;12.20;85.20;;;;;;5041537;28;20040;-66
2022/09/27 08:26:38;;;;;;;2.53;1.00;;;12.20;85.20;;;;;;5046937;28;20029;-66
2022/09/27 08:29:04;;;;;;;2.97;0.90;;;12.20;85.30;;;;;;5039134;28;20025;-66
2022/09/27 08:31:30;;;;;;;3.13;1.00;;;12.30;85.30;;;;;;5042126;28;20384;-66
2022/09/27 08:33:56;;;;;;;3.13;1.15;;;12.30;85.40;;;;;;5042304;28;20035;-66
2022/09/27 08:36:23;;;;;;;2.47;0.80;;;12.30;85.30;;;;;;5045080;28;20029;-66
2022/09/27 08:38:49;;;;;;;2.88;1.20;;;12.30;85.20;;;;;;5041208;28;20072;-65
2022/09/27 08:41:28;;;;;;;3.45;1.27;;;12.30;85.30;;;;;;5046478;28;20032;-66
2022/09/27 08:44:11;;;;;;;2.22;1.33;;;12.30;85.30;;;;;;5038192;28;20032;-66
2022/09/27 08:47:01;;;;;;;3.10;1.30;;;12.30;85.30;;;;;;5041143;28;20028;-66
2022/09/27 08:49:40;;;;;;;3.53;1.42;;;12.20;85.20;;;;;;5039052;28;20391;-66
2022/09/27 08:52:11;;;;;;;2.85;1.40;;;12.20;85.10;;;;;;5039080;28;20391;-66
2022/09/27 08:54:38;;;;;;;3.25;1.30;;;12.10;85.30;;;;;;5046134;28;20032;-66
2022/09/27 08:57:09;;;;;;;2.67;1.30;;;12.20;85.40;;;;;;5048953;28;20029;-66
2022/09/27 09:00:02;;;;;;;3.00;1.40;;;12.20;85.30;;;;;;5045133;28;20025;-66
2022/09/27 09:02:28;;;;;;;1.35;1.10;;;12.30;85.40;;;;;;5041578;28;20107;-66
2022/09/27 09:04:59;;;;;;;3.28;1.30;;;12.30;85.40;;;;;;5041159;28;20026;-66
2022/09/27 09:07:36;;;;;;;1.97;1.50;;;12.40;85.30;;;;;;5043288;28;20025;-66
2022/09/27 09:10:04;;;;;;;1.90;1.50;;;12.40;85.30;;;;;;5043700;28;20361;-66
2022/09/27 09:12:54;;;;;;;3.15;1.52;;;12.40;85.20;;;;;;5042908;28;20368;-66
2022/09/27 09:15:53;;;;;;;2.30;1.20;;;12.40;85.10;;;;;;5045229;28;20041;-66
2022/09/27 09:18:53;;;;;;;1.42;1.13;;;12.40;85.10;;;;;;5039523;28;20021;-66
2022/09/27 09:21:43;;;;;;;1.77;1.20;;;12.50;85.20;;;;;;5035826;28;20492;-65
2022/09/27 09:24:33;;;;;;;1.60;1.10;;;12.60;85.10;;;;;;5046861;28;20030;-65
2022/09/27 09:27:16;;;;;;;2.08;1.30;;;12.50;84.80;;;;;;5037989;28;20065;-66
2022/09/27 09:29:50;;;;;;;1.90;1.30;;;12.50;84.80;;;;;;5038107;28;20013;-66
2022/09/27 09:32:45;;;;;;;2.63;1.20;;;12.50;85.00;;;;;;5037022;28;20033;-66
2022/09/27 09:35:23;;;;;;;1.30;1.08;;;12.40;84.70;;;;;;5036759;28;20031;-66
2022/09/27 09:37:56;;;;;;;2.28;1.23;;;12.30;84.80;;;;;;5033115;28;20530;-66
2022/09/27 09:40:28;;;;;;;2.50;1.40;;;12.30;85.40;;;;;;5044513;28;20025;-65
2022/09/27 09:43:27;;;;;;;2.28;1.02;;;12.30;84.80;;;;;;5034543;28;20038;-65
2022/09/27 09:46:21;;;;;;;2.15;1.33;;;12.20;84.90;;;;;;5050915;28;20064;-65
2022/09/27 09:48:50;;;;;;;3.03;1.08;;;12.20;84.80;;;;;;5037290;28;20038;-65
2022/09/27 09:51:21;;;;;;;3.05;1.15;;;12.10;84.80;;;;;;5031305;28;20027;-64
2022/09/27 09:54:05;;;;;;;1.88;0.98;;;12.10;85.10;;;;;;5031974;28;20091;-65
2022/09/27 09:56:35;;;;;;;1.75;0.82;;;12.10;84.90;;;;;;5047379;28;20029;-65
2022/09/27 09:59:09;;;;;;;1.42;0.80;;;12.00;84.90;;;;;;5051039;28;20108;-65
2022/09/27 10:01:41;;;;;;;1.88;0.90;;;12.10;85.00;;;;;;5059129;28;20025;-65
2022/09/27 10:04:21;;;;;;;1.38;0.90;;;12.10;84.90;;;;;;5052888;28;20041;-66
2022/09/27 10:06:48;;;;;;;1.15;0.90;;;12.20;84.90;;;;;;5053520;28;20008;-66
2022/09/27 10:09:16;;;;;;;1.58;0.70;;;12.20;84.90;;;;;;5061581;28;20020;-65
2022/09/27 10:11:44;;;;;;;3.15;0.80;;;12.30;84.90;;;;;;5058121;28;20021;-65
2022/09/27 10:14:19;;;;;;;2.55;1.00;;;12.30;84.70;;;;;;5060794;28;20079;-65
2022/09/27 10:16:48;;;;;;;2.13;0.90;;;12.40;84.50;;;;;;5052562;28;20067;-66
2022/09/27 10:19:19;;;;;;;1.70;0.88;;;12.30;84.10;;;;;;5060707;28;20044;-65
2022/09/27 10:21:48;;;;;;;0.95;0.80;;;12.20;84.00;;;;;;5053975;28;20043;-66
2022/09/27 10:24:15;;;;;;;3.30;1.33;;;12.20;84.10;;;;;;5053258;28;20447;-66
2022/09/27 10:26:43;;;;;;;1.13;1.00;;;12.20;84.20;;;;;;5040409;28;20012;-65
2022/09/27 10:29:22;;;;;;;24.05;19.17;;;12.20;84.30;;;;;;5064405;28;20028;-65
2022/09/27 10:31:49;;;;;;;33.35;27.52;;;12.20;84.30;;;;;;5062021;28;20028;-66
2022/09/27 10:34:31;;;;;;;54.28;45.08;;;12.20;84.30;;;;;;5051536;28;20021;-66
2022/09/27 10:37:11;;;;;;;28.27;24.95;;;12.20;84.30;;;;;;5044653;28;20074;-66
2022/09/27 10:39:40;;;;;;;15.20;11.75;;;12.20;84.30;;;;;;5056712;28;20468;-66
2022/09/27 10:42:36;;;;;;;16.35;13.85;;;12.20;84.20;;;;;;5054331;28;20079;-66
2022/09/27 10:45:20;;;;;;;5.70;4.68;;;12.30;84.10;;;;;;5047455;28;20037;-66
2022/09/27 10:47:46;;;;;;;6.55;5.38;;;12.40;84.10;;;;;;5065213;28;20048;-66
2022/09/27 10:50:25;;;;;;;7.18;5.50;;;12.40;83.80;;;;;;5056629;28;20511;-66
2022/09/27 10:53:04;;;;;;;3.08;2.30;;;12.40;83.80;;;;;;5045188;28;20458;-66
2022/09/27 10:55:34;;;;;;;2.90;1.85;;;12.40;83.80;;;;;;5052978;28;22880;-66
2022/09/27 10:58:01;;;;;;;3.65;1.70;;;12.40;83.70;;;;;;5054966;28;20108;-66
2022/09/27 11:00:35;;;;;;;2.22;1.08;;;12.40;83.70;;;;;;5049845;28;20050;-66
2022/09/27 11:03:04;;;;;;;2.53;1.60;;;12.50;83.70;;;;;;5063133;28;20027;-66
2022/09/27 11:05:36;;;;;;;9.00;7.95;;;12.50;83.40;;;;;;5071129;28;20103;-66
2022/09/27 11:08:28;;;;;;;2.63;1.90;;;12.60;83.10;;;;;;5053839;28;20017;-67
2022/09/27 11:11:00;;;;;;;2.20;1.67;;;12.60;83.00;;;;;;5056748;28;20020;-66
2022/09/27 11:13:31;;;;;;;1.98;1.50;;;12.60;82.90;;;;;;5049107;28;20487;-66
2022/09/27 11:15:59;;;;;;;1.85;1.10;;;12.70;82.80;;;;;;5057505;28;20021;-65
2022/09/27 11:18:46;;;;;;;1.27;0.80;;;12.80;82.70;;;;;;5058576;28;20036;-66
2022/09/27 11:21:38;;;;;;;2.40;0.95;;;12.80;82.40;;;;;;5064071;28;20513;-65
2022/09/27 11:25:00;;;;;;;2.10;0.70;;;12.70;82.30;;;;;;5057614;28;20029;-65
2022/09/27 11:27:34;;;;;;;0.73;0.50;;;12.80;82.40;;;;;;5015076;28;20026;-66
2022/09/27 11:30:16;;;;;;;1.88;1.00;;;12.80;82.30;;;;;;4998689;28;20053;-66
2022/09/27 11:33:02;;;;;;;1.98;1.20;;;12.70;81.80;;;;;;5038291;28;20032;-65
2022/09/27 11:35:46;;;;;;;1.67;0.90;;;12.80;82.00;;;;;;5052142;28;20496;-65
2022/09/27 11:38:45;;;;;;;1.23;0.90;;;12.80;82.00;;;;;;5055683;28;20084;-65
2022/09/27 11:41:39;;;;;;;3.80;2.42;;;13.00;82.10;;;;;;5042459;28;20066;-66
2022/09/27 11:44:43;;;;;;;1.35;0.90;;;13.10;81.90;;;;;;5054995;28;20541;-65
2022/09/27 11:47:40;;;;;;;2.42;0.98;;;13.30;81.60;;;;;;5027360;28;20042;-65
2022/09/27 11:50:06;;;;;;;2.65;1.60;;;13.30;81.30;;;;;;5064904;28;20570;-66
2022/09/27 11:53:06;;;;;;;2.47;1.08;;;13.40;81.10;;;;;;5057518;28;20089;-65
2022/09/27 11:56:04;;;;;;;2.08;1.17;;;13.40;80.70;;;;;;5044537;28;20368;-65
2022/09/27 11:58:49;;;;;;;2.15;0.93;;;13.40;80.50;;;;;;5056596;28;20028;-65
2022/09/27 12:01:24;;;;;;;1.30;1.10;;;13.40;80.60;;;;;;5063241;28;20048;-65
2022/09/27 12:04:21;;;;;;;1.67;1.50;;;13.30;80.60;;;;;;5055752;28;20478;-65
2022/09/27 12:07:08;;;;;;;1.33;0.80;;;13.30;80.70;;;;;;5042043;28;20028;-64
2022/09/27 12:09:40;;;;;;;2.45;0.90;;;13.30;80.70;;;;;;5043698;28;20032;-65
2022/09/27 12:12:13;;;;;;;1.98;0.90;;;13.20;80.60;;;;;;5043821;28;20020;-64
2022/09/27 12:14:46;;;;;;;0.95;0.90;;;13.20;80.70;;;;;;5061106;28;20033;-65
2022/09/27 12:17:17;;;;;;;1.27;1.17;;;13.20;80.60;;;;;;5061961;28;20029;-65
2022/09/27 12:19:50;;;;;;;1.57;1.47;;;13.20;80.60;;;;;;5055219;28;20078;-65
2022/09/27 12:22:25;;;;;;;0.85;0.70;;;13.30;80.50;;;;;;5047781;28;20032;-65
2022/09/27 12:24:51;;;;;;;1.95;1.65;;;13.30;80.30;;;;;;5049250;28;20066;-65
2022/09/27 12:27:34;;;;;;;1.58;1.00;;;13.40;80.40;;;;;;5042964;28;20116;-65
2022/09/27 12:30:01;;;;;;;1.83;1.60;;;13.50;80.40;;;;;;5056305;28;20028;-66
2022/09/27 12:32:43;;;;;;;1.75;1.10;;;13.60;80.10;;;;;;5051741;28;20021;-65
2022/09/27 12:35:21;;;;;;;1.70;1.60;;;13.70;79.90;;;;;;5046096;28;20103;-65
2022/09/27 12:37:56;;;;;;;0.80;0.70;;;13.70;79.50;;;;;;5058248;28;20018;-66
2022/09/27 12:40:33;;;;;;;1.17;1.05;;;13.60;79.30;;;;;;5059716;28;20036;-65
2022/09/27 12:43:01;;;;;;;1.67;1.00;;;13.60;79.20;;;;;;5049751;28;20124;-65
2022/09/27 12:45:55;;;;;;;1.05;0.80;;;13.60;79.30;;;;;;5056455;28;20024;-65
2022/09/27 12:48:27;;;;;;;1.63;0.82;;;13.60;78.90;;;;;;5052836;28;20036;-65
2022/09/27 12:51:02;;;;;;;1.98;1.60;;;13.50;79.00;;;;;;5053456;28;20383;-65
2022/09/27 12:53:41;;;;;;;3.20;1.80;;;13.40;78.60;;;;;;5060344;28;20086;-65
2022/09/27 12:56:26;;;;;;;1.65;1.30;;;13.30;78.70;;;;;;5058112;28;20055;-65
2022/09/27 12:59:16;;;;;;;1.88;1.58;;;13.30;78.80;;;;;;5038997;28;20044;-66
2022/09/27 13:01:58;;;;;;;1.77;1.60;;;13.40;78.90;;;;;;5046826;28;20394;-65
2022/09/27 13:04:29;;;;;;;;;;;13.50;79.00;;;;;;5052209;28;20064;-65
2022/09/27 13:07:16;;;;;;;4.70;3.20;;;13.50;78.70;;;;;;5059449;28;19916;-65
2022/09/27 13:09:58;;;;;;;5.38;3.10;;;13.40;78.70;;;;;;5047893;28;20147;-65
2022/09/27 13:12:26;;;;;;;6.25;4.22;;;13.20;78.70;;;;;;5054964;28;20044;-65
2022/09/27 13:15:18;;;;;;;5.00;3.15;;;13.20;79.10;;;;;;5049906;28;20376;-65
2022/09/27 13:17:43;;;;;;;1.85;1.40;;;13.20;79.40;;;;;;5044626;28;20032;-65